KHZR

Details ICAO KHZR
Name FALSE RIVER RGNL
Region United States
Timezone America/Chicago (UTC-6.0)
Plans Departing 0
Arriving 1
Stats Elevation 39 ft / 12 m (AMSL)
Location 30.718318° -91.478660°
Runways 1
Magnetic Variation 0.010° E
Sunrise 2017-12-12 12:55:36 UTC / 2017-12-12 06:55:36 Local
Sunset 2017-12-12 23:06:47 UTC / 2017-12-12 17:06:47 Local
Advertisement - Login to hide

Runways

ID Width Length Bearing (true) Bearing (mag) Surface Threshold Offset Overrun Length
18 75 ft / 23 m 5,016 ft / 1,529 m 184.28° 184.27° Asphalt 0 ft / 0 m 0 ft / 0 m
36 75 ft / 23 m 5,016 ft / 1,529 m 4.27° 4.26° Asphalt 0 ft / 0 m 0 ft / 0 m

Approach Navaids

Runway Type Ident Frequency Range Bearing (true) Bearing (mag) Slope Elevation
36 Localiser IHZR 111.90 MHz 18 nm / 33 km 4.28° 4.26° - 39 ft / 12 m (AMSL)

Map

Weather


0- 5 10 15 20 25 30 35+ Temperature / ° C

Clouds and Precipitation
Forecast for 2017-12-12 06:00 UTC. Updated an hour ago

Ground ~20,000 ft ~40,000 ft Winds

METAR

KHZR 120635Z AUTO 00000KT 10SM CLR 08/04 A3010 RMK AO2 T00750043

TAF

Not found

Frequencies

Recorded 121.25 MHz AWOS
Approach 120.30 MHz BATON ROUGE APP/DEP
Unicom 122.80 MHz CTAF/UNICOM
Warning: Do not use this data for real-world aviation or navigation. No guarantee of current accuracy is given.